createdAt,value
2023-03-07T00:09:23.878Z,18.63
2023-03-07T00:19:26.071Z,21.00
2023-03-07T00:29:29.258Z,19.50
2023-03-07T00:39:38.554Z,15.40
2023-03-07T00:49:46.645Z,14.40
2023-03-07T00:59:52.216Z,12.80
2023-03-07T01:09:56.613Z,12.80
2023-03-07T01:20:02.225Z,10.27
2023-03-07T01:30:09.625Z,13.83
2023-03-07T01:40:15.664Z,12.07
2023-03-07T01:50:28.510Z,12.70
2023-03-07T02:00:36.386Z,11.90
2023-03-07T02:10:41.518Z,12.00
2023-03-07T02:21:10.396Z,11.73
2023-03-07T02:31:14.485Z,11.80
2023-03-07T02:41:27.587Z,11.70
2023-03-07T02:51:34.632Z,11.67
2023-03-07T03:01:39.467Z,13.57
2023-03-07T03:11:45.983Z,16.30
2023-03-07T03:21:53.950Z,18.43
2023-03-07T03:31:56.674Z,21.37
2023-03-07T03:42:06.396Z,19.60
2023-03-07T03:52:12.850Z,22.57
2023-03-07T04:02:20.355Z,20.87
2023-03-07T04:12:30.537Z,20.10
2023-03-07T04:22:34.279Z,21.60
2023-03-07T04:32:44.409Z,20.10
2023-03-07T04:42:50.388Z,21.00
2023-03-07T04:53:00.424Z,18.90
2023-03-07T05:03:03.303Z,21.93
2023-03-07T05:13:07.108Z,25.50
2023-03-07T05:23:14.262Z,22.77
2023-03-07T05:33:16.653Z,22.80
2023-03-07T05:43:24.270Z,19.93
2023-03-07T05:53:30.673Z,20.47
2023-03-07T06:03:35.991Z,17.53
2023-03-07T06:13:45.376Z,23.43
2023-03-07T06:23:52.780Z,25.70
2023-03-07T06:34:02.354Z,23.43
2023-03-07T06:44:05.380Z,24.87
2023-03-07T06:54:13.195Z,22.97
2023-03-07T07:04:15.872Z,26.17
2023-03-07T07:14:26.785Z,22.50
2023-03-07T07:24:29.189Z,23.77
2023-03-07T07:34:31.538Z,15.30
2023-03-07T07:44:39.091Z,20.73
2023-03-07T07:54:46.126Z,17.27
2023-03-07T08:04:53.819Z,15.20
2023-03-07T08:15:00.332Z,13.77
2023-03-07T08:25:07.069Z,12.63
2023-03-07T08:35:11.502Z,9.57
2023-03-07T08:45:21.347Z,14.20
2023-03-07T08:55:25.196Z,11.93
2023-03-07T09:05:31.465Z,15.17
2023-03-07T09:15:37.631Z,14.57
2023-03-07T09:25:41.239Z,13.00
2023-03-07T09:35:47.240Z,12.60
2023-03-07T09:46:41.309Z,17.10
2023-03-07T09:56:56.188Z,15.97
2023-03-07T10:07:02.721Z,16.10
2023-03-07T10:17:27.795Z,16.27
2023-03-07T10:27:32.276Z,12.57
2023-03-07T10:38:16.933Z,13.30
2023-03-07T10:48:30.610Z,17.53
2023-03-07T10:58:38.226Z,14.07
2023-03-07T11:08:45.551Z,18.93
2023-03-07T11:18:57.759Z,22.73
2023-03-07T11:29:12.081Z,19.10
2023-03-07T11:39:27.005Z,20.17
2023-03-07T11:49:51.663Z,18.83
2023-03-07T12:00:04.751Z,14.77
2023-03-07T12:10:48.370Z,17.47
2023-03-07T12:21:40.972Z,16.47
2023-03-07T12:31:54.036Z,15.30
2023-03-07T12:42:16.947Z,15.60
2023-03-07T12:53:03.969Z,13.07
2023-03-07T13:03:11.850Z,14.40
2023-03-07T13:14:05.652Z,14.00
2023-03-07T13:24:40.128Z,14.80
2023-03-07T13:34:48.972Z,12.53
2023-03-07T13:44:52.804Z,12.70
2023-03-07T13:54:55.317Z,12.73
2023-03-07T14:05:02.327Z,11.60
2023-03-07T14:15:07.473Z,12.10
2023-03-07T14:25:19.834Z,11.20
2023-03-07T14:35:54.488Z,9.57
2023-03-07T14:46:13.404Z,10.33
2023-03-07T14:56:22.374Z,9.87
2023-03-07T15:06:26.864Z,7.33
2023-03-07T15:16:37.840Z,8.70
2023-03-07T15:26:43.375Z,8.57
2023-03-07T15:36:45.758Z,8.90
2023-03-07T15:46:52.643Z,9.57
2023-03-07T15:56:56.843Z,9.13
2023-03-07T16:07:15.562Z,9.37
2023-03-07T16:17:23.432Z,8.37
2023-03-07T16:27:28.677Z,8.80
2023-03-07T16:37:36.331Z,9.23
2023-03-07T16:47:41.967Z,8.53
2023-03-07T16:57:49.723Z,8.73
2023-03-07T17:07:55.889Z,9.67
2023-03-07T17:18:01.344Z,8.87
2023-03-07T17:28:09.394Z,9.47
2023-03-07T17:38:11.558Z,9.87
2023-03-07T17:48:18.837Z,10.83
2023-03-07T17:58:22.676Z,9.97
2023-03-07T18:08:26.823Z,10.47
2023-03-07T18:18:35.594Z,9.87
2023-03-07T18:28:40.646Z,9.70
2023-03-07T18:38:43.659Z,9.07
2023-03-07T18:48:51.508Z,9.43
2023-03-07T18:58:57.068Z,9.90
2023-03-07T19:09:03.685Z,9.33
2023-03-07T19:19:06.009Z,8.97
2023-03-07T19:29:12.237Z,8.23
2023-03-07T19:39:20.719Z,7.30
2023-03-07T19:49:27.052Z,8.00
2023-03-07T19:59:34.036Z,8.23
2023-03-07T20:09:40.532Z,7.33
2023-03-07T20:19:42.885Z,7.53
2023-03-07T20:29:46.746Z,7.03
2023-03-07T20:39:51.674Z,6.17
2023-03-07T20:49:53.905Z,5.70
2023-03-07T21:00:00.396Z,6.50
2023-03-07T21:10:10.431Z,5.97
2023-03-07T21:20:14.731Z,6.47
2023-03-07T21:30:18.997Z,4.43
2023-03-07T21:40:22.409Z,6.43
2023-03-07T21:50:27.981Z,5.70
2023-03-07T22:00:30.604Z,5.37
2023-03-07T22:10:37.640Z,5.57
2023-03-07T22:20:40.240Z,6.90
2023-03-07T22:30:43.146Z,5.13
2023-03-07T22:40:47.733Z,1.43
2023-03-07T22:50:52.329Z,1.63
2023-03-07T23:00:57.098Z,1.80
2023-03-07T23:11:08.626Z,1.50
2023-03-07T23:21:15.337Z,1.70
2023-03-07T23:31:23.133Z,1.90
2023-03-07T23:41:28.136Z,1.93
2023-03-07T23:51:30.677Z,1.53
